createdAt,value
2019-04-11T00:03:25.188Z,9.11
2019-04-11T00:07:30.125Z,9.09
2019-04-11T00:11:35.718Z,9.08
2019-04-11T00:15:40.462Z,9.05
2019-04-11T00:19:45.399Z,9.07
2019-04-11T00:23:50.286Z,9.09
2019-04-11T00:27:55.130Z,9.09
2019-04-11T00:31:59.291Z,9.07
2019-04-11T00:36:04.211Z,9.05
2019-04-11T00:40:08.982Z,9.02
2019-04-11T00:44:14.673Z,9.01
2019-04-11T00:48:19.695Z,9.00
2019-04-11T00:52:24.055Z,9.04
2019-04-11T00:56:28.450Z,9.03
2019-04-11T01:00:33.345Z,9.03
2019-04-11T01:04:39.026Z,9.00
2019-04-11T01:08:44.008Z,8.98
2019-04-11T01:12:49.758Z,8.97
2019-04-11T01:16:57.045Z,8.95
2019-04-11T01:21:02.060Z,8.95
2019-04-11T01:25:06.866Z,8.95
2019-04-11T01:29:11.346Z,8.94
2019-04-11T01:33:15.785Z,8.89
2019-04-11T01:37:19.939Z,8.86
2019-04-11T01:41:24.652Z,8.83
2019-04-11T01:45:29.613Z,8.83
2019-04-11T01:49:34.440Z,8.80
2019-04-11T01:53:39.478Z,8.76
2019-04-11T01:57:44.779Z,8.70
2019-04-11T02:02:13.973Z,8.66
2019-04-11T02:06:18.477Z,8.66
2019-04-11T02:10:22.748Z,8.63
2019-04-11T02:14:27.965Z,8.63
2019-04-11T02:18:32.377Z,8.59
2019-04-11T02:22:54.983Z,8.56
2019-04-11T02:27:16.968Z,8.53
2019-04-11T02:31:22.877Z,8.52
2019-04-11T02:35:28.890Z,8.51
2019-04-11T02:39:35.363Z,8.48
2019-04-11T02:43:44.168Z,8.47
2019-04-11T02:47:48.581Z,8.45
2019-04-11T02:51:55.726Z,8.46
2019-04-11T02:56:00.753Z,8.43
2019-04-11T03:00:08.557Z,8.42
2019-04-11T03:04:12.990Z,8.39
2019-04-11T03:08:19.815Z,8.39
2019-04-11T03:12:24.047Z,8.41
2019-04-11T03:16:42.818Z,8.38
2019-04-11T03:20:44.904Z,8.39
2019-04-11T03:24:42.756Z,8.36
2019-04-11T03:28:50.193Z,8.33
2019-04-11T03:33:53.929Z,8.35
2019-04-11T03:37:23.074Z,8.31
2019-04-11T03:41:23.552Z,8.32
2019-04-11T03:45:33.424Z,8.30
2019-04-11T03:49:29.285Z,8.26
2019-04-11T03:53:29.147Z,8.25
2019-04-11T03:57:31.904Z,8.26
2019-04-11T04:01:37.974Z,8.24
2019-04-11T04:05:44.367Z,8.21
2019-04-11T04:09:49.211Z,8.14
2019-04-11T04:14:24.350Z,8.14
2019-04-11T04:18:43.769Z,8.08
2019-04-11T04:23:07.634Z,8.04
2019-04-11T04:27:13.181Z,7.98
2019-04-11T04:31:18.514Z,7.95
2019-04-11T04:35:24.089Z,7.92
2019-04-11T04:39:29.937Z,7.93
2019-04-11T04:43:36.507Z,7.90
2019-04-11T04:47:47.817Z,7.88
2019-04-11T04:51:47.766Z,7.90
2019-04-11T04:55:53.857Z,7.87
2019-04-11T04:59:59.900Z,7.86
2019-04-11T05:04:04.815Z,7.84
2019-04-11T05:08:10.720Z,7.83
2019-04-11T05:12:16.241Z,7.81
2019-04-11T05:16:20.517Z,7.79
2019-04-11T05:20:24.854Z,7.81
2019-04-11T05:24:29.063Z,7.79
2019-04-11T05:28:33.370Z,7.79
2019-04-11T05:32:37.650Z,7.80
2019-04-11T05:36:42.863Z,7.83
2019-04-11T05:40:48.305Z,7.78
2019-04-11T05:44:52.476Z,7.82
2019-04-11T05:49:14.589Z,7.87
2019-04-11T05:53:20.337Z,7.88
2019-04-11T05:57:33.622Z,7.87
2019-04-11T06:01:39.217Z,7.84
2019-04-11T06:06:12.734Z,7.84
2019-04-11T06:10:22.609Z,7.78
2019-04-11T06:14:51.659Z,7.77
2019-04-11T06:19:30.567Z,7.74
2019-04-11T06:24:09.920Z,7.78
2019-04-11T06:28:22.180Z,7.78
2019-04-11T06:32:54.372Z,7.77
2019-04-11T06:37:11.792Z,7.75
2019-04-11T06:41:35.136Z,7.79
2019-04-11T06:46:02.949Z,7.79
2019-04-11T06:50:39.666Z,7.77
2019-04-11T06:55:10.906Z,7.78
2019-04-11T06:59:21.592Z,7.80
2019-04-11T07:03:30.580Z,7.83
2019-04-11T07:07:36.168Z,7.86
2019-04-11T07:11:52.951Z,7.86
2019-04-11T07:15:57.958Z,7.91
2019-04-11T07:20:36.358Z,7.96
2019-04-11T07:24:59.721Z,8.02
2019-04-11T07:29:23.946Z,8.08
2019-04-11T07:33:46.288Z,8.15
2019-04-11T07:37:53.327Z,8.22
2019-04-11T07:42:15.952Z,8.26
2019-04-11T07:46:42.996Z,8.27
2019-04-11T07:50:48.697Z,8.32
2019-04-11T07:54:53.700Z,8.31
2019-04-11T07:59:00.870Z,8.28
2019-04-11T08:03:10.021Z,8.30
2019-04-11T08:07:33.148Z,8.36
2019-04-11T08:11:47.717Z,8.40
2019-04-11T08:16:10.568Z,8.50
2019-04-11T08:20:33.262Z,8.56
2019-04-11T08:24:43.377Z,8.60
2019-04-11T08:28:59.588Z,8.62
2019-04-11T08:32:55.665Z,8.67
2019-04-11T08:37:17.345Z,8.74
2019-04-11T08:41:35.851Z,8.78
2019-04-11T08:45:46.567Z,8.81
2019-04-11T08:49:54.323Z,8.90
2019-04-11T08:54:17.538Z,8.96
2019-04-11T08:58:59.123Z,9.04
2019-04-11T09:03:17.680Z,9.14
2019-04-11T09:07:25.477Z,9.15
2019-04-11T09:11:41.107Z,9.21
2019-04-11T09:16:03.907Z,9.23
2019-04-11T09:20:27.672Z,9.33
2019-04-11T09:24:46.507Z,9.45
2019-04-11T09:28:53.601Z,9.57
2019-04-11T09:33:09.306Z,9.64
2019-04-11T09:37:33.670Z,9.67
2019-04-11T09:41:57.070Z,9.70
2019-04-11T09:46:14.577Z,9.76
2019-04-11T09:50:34.201Z,9.83
2019-04-11T09:54:52.656Z,9.89
2019-04-11T09:59:00.246Z,9.94
2019-04-11T10:03:19.684Z,9.98
2019-04-11T10:07:33.466Z,10.02
2019-04-11T10:11:59.829Z,10.07
2019-04-11T10:16:32.144Z,10.04
2019-04-11T10:20:37.063Z,10.05
2019-04-11T10:24:54.793Z,10.11
2019-04-11T10:29:12.453Z,10.12
2019-04-11T10:33:37.180Z,10.21
2019-04-11T10:37:42.577Z,10.24
2019-04-11T10:41:50.474Z,10.29
2019-04-11T10:46:02.870Z,10.31
2019-04-11T10:50:21.712Z,10.32
2019-04-11T10:54:26.206Z,10.32
2019-04-11T10:58:37.258Z,10.32
2019-04-11T11:03:06.533Z,10.33
2019-04-11T11:07:13.806Z,10.33
2019-04-11T11:11:28.349Z,10.34
2019-04-11T11:15:45.775Z,10.33
2019-04-11T11:20:16.414Z,10.36
2019-04-11T11:24:30.064Z,10.37
2019-04-11T11:28:38.650Z,10.38
2019-04-11T11:32:45.440Z,10.41
2019-04-11T11:37:11.512Z,10.40
2019-04-11T11:41:38.555Z,10.40
2019-04-11T11:46:17.801Z,10.45
2019-04-11T11:50:23.839Z,10.50
2019-04-11T11:54:33.922Z,10.50
2019-04-11T11:59:09.256Z,10.54
2019-04-11T12:03:40.444Z,10.61
2019-04-11T12:08:15.334Z,10.65
2019-04-11T12:12:23.928Z,10.74
2019-04-11T12:16:52.014Z,10.77
2019-04-11T12:20:59.329Z,10.78
2019-04-11T12:25:22.892Z,10.72
2019-04-11T12:29:48.935Z,10.73
2019-04-11T12:34:10.268Z,10.75
2019-04-11T12:38:24.495Z,10.73
2019-04-11T12:42:30.621Z,10.76
2019-04-11T12:46:52.601Z,10.73
2019-04-11T12:51:28.217Z,10.73
2019-04-11T12:56:06.738Z,10.70
2019-04-11T13:00:24.635Z,10.74
2019-04-11T13:04:33.990Z,10.78
2019-04-11T13:08:56.372Z,10.76
2019-04-11T13:13:19.516Z,10.78
2019-04-11T13:17:28.573Z,10.71
2019-04-11T13:21:48.489Z,10.69
2019-04-11T13:26:12.167Z,10.66
2019-04-11T13:30:47.679Z,10.66
2019-04-11T13:34:52.964Z,10.67
2019-04-11T13:38:57.339Z,10.63
2019-04-11T13:43:38.977Z,10.57
2019-04-11T13:48:00.859Z,10.54
2019-04-11T13:52:30.359Z,10.51
2019-04-11T13:56:47.987Z,10.48
2019-04-11T14:00:53.565Z,10.42
2019-04-11T14:04:57.762Z,10.43
2019-04-11T14:09:13.248Z,10.43
2019-04-11T14:13:17.462Z,10.43
2019-04-11T14:17:25.703Z,10.41
2019-04-11T14:21:29.939Z,10.38
2019-04-11T14:25:51.973Z,10.32
2019-04-11T14:30:05.905Z,10.29
2019-04-11T14:34:32.195Z,10.26
2019-04-11T14:38:45.588Z,10.25
2019-04-11T14:43:04.516Z,10.22
2019-04-11T14:47:30.529Z,10.23
2019-04-11T14:51:58.448Z,10.21
2019-04-11T14:56:05.886Z,10.21
2019-04-11T15:00:36.585Z,10.26
2019-04-11T15:04:49.912Z,10.27
2019-04-11T15:09:19.417Z,10.25
2019-04-11T15:13:26.033Z,10.27
2019-04-11T15:17:32.454Z,10.29
2019-04-11T15:21:56.306Z,10.28
2019-04-11T15:26:22.581Z,10.24
2019-04-11T15:30:27.385Z,10.19
2019-04-11T15:34:59.697Z,10.25
2019-04-11T15:39:29.233Z,10.27
2019-04-11T15:43:58.818Z,10.25
2019-04-11T15:48:23.706Z,10.23
2019-04-11T15:52:28.824Z,10.18
2019-04-11T15:56:43.575Z,10.18
2019-04-11T16:01:02.767Z,10.13
2019-04-11T16:05:25.422Z,10.10
2019-04-11T16:09:29.613Z,10.06
2019-04-11T16:13:46.071Z,10.00
2019-04-11T16:18:18.474Z,9.94
2019-04-11T16:22:42.988Z,9.90
2019-04-11T16:27:14.802Z,9.82
2019-04-11T16:31:19.097Z,9.75
2019-04-11T16:35:38.784Z,9.67
2019-04-11T16:40:02.178Z,9.63
2019-04-11T16:44:09.160Z,9.59
2019-04-11T16:48:13.366Z,9.51
2019-04-11T16:52:17.651Z,9.42
2019-04-11T16:56:22.279Z,9.41
2019-04-11T17:00:26.489Z,9.34
2019-04-11T17:04:30.827Z,9.30
2019-04-11T17:08:56.440Z,9.30
2019-04-11T17:13:00.333Z,9.25
2019-04-11T17:17:14.465Z,9.21
2019-04-11T17:21:10.564Z,9.15
2019-04-11T17:25:17.571Z,9.11
2019-04-11T17:29:24.693Z,9.10
2019-04-11T17:33:28.607Z,9.03
2019-04-11T17:37:33.666Z,9.00
2019-04-11T17:41:41.802Z,8.98
2019-04-11T17:45:46.869Z,8.94
2019-04-11T17:49:50.431Z,8.93
2019-04-11T17:53:55.634Z,8.89
2019-04-11T17:58:00.056Z,8.86
2019-04-11T18:02:10.127Z,8.83
2019-04-11T18:06:16.943Z,8.79
2019-04-11T18:10:18.636Z,8.73
2019-04-11T18:14:22.946Z,8.71
2019-04-11T18:18:27.287Z,8.69
2019-04-11T18:22:31.603Z,8.65
2019-04-11T18:26:35.924Z,8.63
2019-04-11T18:30:40.303Z,8.59
2019-04-11T18:34:44.629Z,8.59
2019-04-11T18:38:48.906Z,8.58
2019-04-11T18:42:54.183Z,8.58
2019-04-11T18:46:58.751Z,8.61
2019-04-11T18:51:03.074Z,8.63
2019-04-11T18:55:08.733Z,8.65
2019-04-11T18:59:13.465Z,8.64
2019-04-11T19:03:17.917Z,8.65
2019-04-11T19:07:27.548Z,8.65
2019-04-11T19:11:29.037Z,8.64
2019-04-11T19:15:33.306Z,8.64
2019-04-11T19:19:37.656Z,8.64
2019-04-11T19:23:41.907Z,8.65
2019-04-11T19:27:50.455Z,8.66
2019-04-11T19:31:52.330Z,8.64
2019-04-11T19:35:56.732Z,8.66
2019-04-11T19:40:00.977Z,8.64
2019-04-11T19:44:05.412Z,8.59
2019-04-11T19:48:09.664Z,8.58
2019-04-11T19:52:14.325Z,8.56
2019-04-11T19:56:49.907Z,8.52
2019-04-11T20:00:54.231Z,8.51
2019-04-11T20:04:58.546Z,8.45
2019-04-11T20:09:02.891Z,8.47
2019-04-11T20:13:07.180Z,8.48
2019-04-11T20:17:11.442Z,8.43
2019-04-11T20:21:15.796Z,8.40
2019-04-11T20:25:19.997Z,8.39
2019-04-11T20:29:24.348Z,8.36
2019-04-11T20:33:33.903Z,8.36
2019-04-11T20:37:39.600Z,8.36
2019-04-11T20:41:40.694Z,8.30
2019-04-11T20:45:45.189Z,8.26
2019-04-11T20:49:49.935Z,8.23
2019-04-11T20:53:54.465Z,8.23
2019-04-11T20:57:58.697Z,8.23
2019-04-11T21:02:03.086Z,8.20
2019-04-11T21:06:07.306Z,8.17
2019-04-11T21:10:11.609Z,8.15
2019-04-11T21:14:15.835Z,8.15
2019-04-11T21:18:20.083Z,8.10
2019-04-11T21:22:24.809Z,8.10
2019-04-11T21:26:29.534Z,8.10
2019-04-11T21:30:33.882Z,8.08
2019-04-11T21:34:38.300Z,8.06
2019-04-11T21:38:42.514Z,8.04
2019-04-11T21:42:46.761Z,8.02
2019-04-11T21:46:51.115Z,8.00
2019-04-11T21:50:55.315Z,8.00
2019-04-11T21:54:59.549Z,8.00
2019-04-11T21:59:03.809Z,7.96
2019-04-11T22:03:08.804Z,7.98
2019-04-11T22:07:13.061Z,7.95
2019-04-11T22:11:17.300Z,7.95
2019-04-11T22:15:21.558Z,7.92
2019-04-11T22:19:25.811Z,7.88
2019-04-11T22:23:30.051Z,7.87
2019-04-11T22:27:34.283Z,7.86
2019-04-11T22:31:38.578Z,7.85
2019-04-11T22:35:42.883Z,7.83
2019-04-11T22:39:47.117Z,7.86
2019-04-11T22:43:51.343Z,7.84
2019-04-11T22:47:55.523Z,7.83
2019-04-11T22:51:59.856Z,7.84
2019-04-11T22:56:04.144Z,7.80
2019-04-11T23:00:08.802Z,7.80
2019-04-11T23:04:16.612Z,7.79
2019-04-11T23:08:19.826Z,7.74
2019-04-11T23:12:24.321Z,7.72
2019-04-11T23:16:28.572Z,7.70
2019-04-11T23:20:33.175Z,7.71
2019-04-11T23:24:37.349Z,7.67
2019-04-11T23:28:45.919Z,7.68
2019-04-11T23:32:50.988Z,7.66
2019-04-11T23:36:53.637Z,7.65
2019-04-11T23:40:57.910Z,7.64
2019-04-11T23:45:02.093Z,7.64
2019-04-11T23:49:06.691Z,7.62
2019-04-11T23:53:11.106Z,7.61
2019-04-11T23:57:15.336Z,7.61
